createdAt,value
2019-05-20T00:02:25.790Z,10.00
2019-05-20T00:04:51.375Z,10.00
2019-05-20T00:07:20.065Z,10.00
2019-05-20T00:09:48.707Z,10.00
2019-05-20T00:12:17.352Z,10.00
2019-05-20T00:14:45.952Z,10.00
2019-05-20T00:17:14.911Z,9.90
2019-05-20T00:19:43.628Z,9.90
2019-05-20T00:22:12.222Z,9.80
2019-05-20T00:24:40.891Z,9.80
2019-05-20T00:27:09.624Z,9.80
2019-05-20T00:29:38.212Z,9.80
2019-05-20T00:32:06.916Z,9.80
2019-05-20T00:34:36.557Z,9.80
2019-05-20T00:37:05.287Z,9.70
2019-05-20T00:39:35.241Z,9.70
2019-05-20T00:42:03.878Z,9.70
2019-05-20T00:44:33.104Z,9.70
2019-05-20T00:47:02.047Z,9.70
2019-05-20T00:49:31.209Z,9.70
2019-05-20T00:52:01.939Z,9.70
2019-05-20T00:54:30.641Z,9.80
2019-05-20T00:56:59.273Z,9.80
2019-05-20T00:59:27.917Z,9.80
2019-05-20T01:01:57.191Z,9.80
2019-05-20T01:04:26.404Z,9.80
2019-05-20T01:06:55.095Z,9.80
2019-05-20T01:09:23.759Z,9.90
2019-05-20T01:11:52.289Z,9.90
2019-05-20T01:14:21.285Z,9.90
2019-05-20T01:16:49.945Z,10.00
2019-05-20T01:19:18.589Z,10.00
2019-05-20T01:21:47.246Z,10.00
2019-05-20T01:24:15.774Z,10.10
2019-05-20T01:26:44.420Z,10.10
2019-05-20T01:29:13.078Z,10.20
2019-05-20T01:31:42.106Z,10.30
2019-05-20T01:34:11.296Z,10.30
2019-05-20T01:36:39.919Z,10.30
2019-05-20T01:39:11.939Z,10.30
2019-05-20T01:41:40.646Z,10.30
2019-05-20T01:44:09.576Z,10.30
2019-05-20T01:46:38.814Z,10.40
2019-05-20T01:49:07.522Z,10.30
2019-05-20T01:51:37.385Z,10.30
2019-05-20T01:54:06.621Z,10.30
2019-05-20T01:56:35.236Z,10.40
2019-05-20T01:59:03.846Z,10.40
2019-05-20T02:01:32.508Z,10.40
2019-05-20T02:04:01.217Z,10.40
2019-05-20T02:06:30.126Z,10.40
2019-05-20T02:08:58.765Z,10.40
2019-05-20T02:11:27.382Z,10.30
2019-05-20T02:13:57.665Z,10.30
2019-05-20T02:16:28.640Z,10.40
2019-05-20T02:18:57.557Z,10.40
2019-05-20T02:21:26.155Z,10.40
2019-05-20T02:23:55.223Z,10.40
2019-05-20T02:26:23.888Z,10.50
2019-05-20T02:28:52.519Z,10.40
2019-05-20T02:31:21.657Z,10.40
2019-05-20T02:33:52.716Z,10.40
2019-05-20T02:36:21.442Z,10.40
2019-05-20T02:38:52.008Z,10.40
2019-05-20T02:41:21.426Z,10.30
2019-05-20T02:43:51.528Z,10.30
2019-05-20T02:46:20.777Z,10.20
2019-05-20T02:48:49.827Z,10.20
2019-05-20T02:51:20.594Z,10.10
2019-05-20T02:53:49.223Z,10.10
2019-05-20T02:56:18.130Z,10.10
2019-05-20T02:58:47.071Z,10.10
2019-05-20T03:01:17.513Z,10.10
2019-05-20T03:03:46.198Z,10.10
2019-05-20T03:06:14.878Z,10.00
2019-05-20T03:08:43.534Z,10.00
2019-05-20T03:11:12.164Z,9.90
2019-05-20T03:13:40.785Z,9.80
2019-05-20T03:16:09.383Z,9.80
2019-05-20T03:18:38.005Z,9.80
2019-05-20T03:21:07.183Z,9.80
2019-05-20T03:23:36.068Z,9.70
2019-05-20T03:26:04.955Z,9.70
2019-05-20T03:28:33.838Z,9.60
2019-05-20T03:31:02.554Z,9.60
2019-05-20T03:33:31.327Z,9.60
2019-05-20T03:36:01.475Z,9.60
2019-05-20T03:38:30.663Z,9.60
2019-05-20T03:40:59.367Z,9.50
2019-05-20T03:43:28.174Z,9.60
2019-05-20T03:45:56.829Z,9.60
2019-05-20T03:48:25.800Z,9.60
2019-05-20T03:50:54.479Z,9.60
2019-05-20T03:53:23.521Z,9.70
2019-05-20T03:55:52.507Z,9.70
2019-05-20T03:58:21.148Z,9.80
2019-05-20T04:00:50.010Z,9.80
2019-05-20T04:03:19.473Z,9.90
2019-05-20T04:05:50.364Z,10.00
2019-05-20T04:08:18.993Z,10.10
2019-05-20T04:10:48.109Z,10.20
2019-05-20T04:13:16.831Z,10.20
2019-05-20T04:15:45.555Z,10.20
2019-05-20T04:18:14.198Z,10.20
2019-05-20T04:20:42.760Z,10.20
2019-05-20T04:23:11.427Z,10.30
2019-05-20T04:25:40.335Z,10.30
2019-05-20T04:28:09.190Z,10.40
2019-05-20T04:30:37.882Z,10.40
2019-05-20T04:33:07.380Z,10.40
2019-05-20T04:35:36.166Z,10.50
2019-05-20T04:38:04.861Z,10.50
2019-05-20T04:40:33.511Z,10.60
2019-05-20T04:43:02.203Z,10.60
2019-05-20T04:45:31.305Z,10.70
2019-05-20T04:47:59.881Z,10.70
2019-05-20T04:50:29.033Z,10.80
2019-05-20T04:52:57.742Z,10.80
2019-05-20T04:55:26.326Z,11.00
2019-05-20T04:57:54.977Z,11.00
2019-05-20T05:00:51.731Z,11.10
2019-05-20T05:03:21.659Z,11.20
2019-05-20T05:05:51.104Z,11.20
2019-05-20T05:08:20.757Z,11.30
2019-05-20T05:10:49.739Z,11.40
2019-05-20T05:13:20.438Z,11.40
2019-05-20T05:15:48.866Z,11.50
2019-05-20T05:18:17.783Z,11.60
2019-05-20T05:20:47.578Z,11.60
2019-05-20T05:23:19.496Z,11.70
2019-05-20T05:25:48.253Z,11.80
2019-05-20T05:28:17.013Z,11.80
2019-05-20T05:30:47.411Z,11.80
2019-05-20T05:33:16.095Z,11.90
2019-05-20T05:35:52.753Z,12.00
2019-05-20T05:38:15.196Z,12.00
2019-05-20T05:40:44.298Z,12.10
2019-05-20T05:43:12.977Z,12.20
2019-05-20T05:45:41.611Z,12.30
2019-05-20T05:48:10.261Z,12.40
2019-05-20T05:50:38.969Z,12.40
2019-05-20T05:53:07.619Z,12.50
2019-05-20T05:55:38.088Z,12.60
2019-05-20T05:58:08.770Z,12.80
2019-05-20T06:00:38.092Z,12.90
2019-05-20T06:03:06.843Z,13.00
2019-05-20T06:05:35.654Z,13.20
2019-05-20T06:08:05.592Z,13.40
2019-05-20T06:10:35.861Z,13.60
2019-05-20T06:13:05.060Z,13.70
2019-05-20T06:15:33.879Z,13.80
2019-05-20T06:18:02.631Z,13.80
2019-05-20T06:20:31.296Z,13.80
2019-05-20T06:23:01.836Z,13.80
2019-05-20T06:25:29.831Z,13.80
2019-05-20T06:27:59.118Z,13.90
2019-05-20T06:30:40.705Z,14.00
2019-05-20T06:33:09.606Z,14.20
2019-05-20T06:35:38.433Z,14.40
2019-05-20T06:38:08.318Z,14.60
2019-05-20T06:40:36.399Z,14.80
2019-05-20T06:43:05.172Z,15.00
2019-05-20T06:45:34.076Z,15.20
2019-05-20T06:48:02.357Z,15.40
2019-05-20T06:50:31.230Z,15.50
2019-05-20T06:52:59.860Z,15.60
2019-05-20T06:55:28.410Z,15.70
2019-05-20T06:57:56.322Z,15.80
2019-05-20T07:00:37.475Z,15.80
2019-05-20T07:03:05.408Z,15.90
2019-05-20T07:05:34.213Z,15.90
2019-05-20T07:08:03.474Z,16.00
2019-05-20T07:10:31.348Z,16.10
2019-05-20T07:12:59.236Z,16.10
2019-05-20T07:15:27.117Z,16.20
2019-05-20T07:17:55.029Z,16.20
2019-05-20T07:20:23.205Z,16.20
2019-05-20T07:22:55.621Z,16.20
2019-05-20T07:25:20.759Z,16.20
2019-05-20T07:27:48.738Z,16.20
2019-05-20T07:30:17.821Z,16.30
2019-05-20T07:32:45.990Z,16.30
2019-05-20T07:35:28.911Z,16.30
2019-05-20T07:37:43.355Z,16.30
2019-05-20T07:40:11.734Z,16.30
2019-05-20T07:42:41.686Z,16.40
2019-05-20T07:45:10.568Z,16.40
2019-05-20T07:47:38.897Z,16.50
2019-05-20T07:50:08.790Z,16.60
2019-05-20T07:52:36.728Z,16.60
2019-05-20T07:55:08.264Z,16.70
2019-05-20T07:57:38.378Z,16.80
2019-05-20T08:00:09.541Z,16.80
2019-05-20T08:02:37.378Z,16.90
2019-05-20T08:05:06.380Z,16.90
2019-05-20T08:07:50.608Z,16.90
2019-05-20T08:10:05.517Z,16.90
2019-05-20T08:12:34.137Z,16.90
2019-05-20T08:15:01.934Z,16.90
2019-05-20T08:17:29.687Z,16.90
2019-05-20T08:19:57.459Z,16.90
2019-05-20T08:22:25.235Z,16.90
2019-05-20T08:24:53.028Z,17.00
2019-05-20T08:27:21.014Z,17.00
2019-05-20T08:29:48.855Z,17.00
2019-05-20T08:32:16.919Z,17.00
2019-05-20T08:34:44.737Z,17.00
2019-05-20T08:37:12.979Z,17.00
2019-05-20T08:39:41.447Z,17.00
2019-05-20T08:42:10.195Z,17.00
2019-05-20T08:44:38.050Z,17.10
2019-05-20T08:47:07.222Z,17.10
2019-05-20T08:49:35.259Z,17.20
2019-05-20T08:52:03.106Z,17.20
2019-05-20T08:54:32.068Z,17.20
2019-05-20T08:57:00.321Z,17.20
2019-05-20T08:59:28.189Z,17.20
2019-05-20T09:01:56.033Z,17.20
2019-05-20T09:04:23.895Z,17.20
2019-05-20T09:06:51.733Z,17.30
2019-05-20T09:09:19.566Z,17.40
2019-05-20T09:11:48.097Z,17.50
2019-05-20T09:14:16.396Z,17.50
2019-05-20T09:16:44.369Z,17.60
2019-05-20T09:19:12.175Z,17.70
2019-05-20T09:21:40.073Z,17.80
2019-05-20T09:24:08.016Z,17.80
2019-05-20T09:26:35.985Z,17.80
2019-05-20T09:29:04.550Z,17.80
2019-05-20T09:31:34.797Z,17.70
2019-05-20T09:34:02.658Z,17.70
2019-05-20T09:36:30.552Z,17.60
2019-05-20T09:38:58.734Z,17.60
2019-05-20T09:41:26.848Z,17.60
2019-05-20T09:43:55.702Z,17.50
2019-05-20T09:46:24.253Z,17.50
2019-05-20T09:48:52.825Z,17.50
2019-05-20T09:51:20.611Z,17.50
2019-05-20T09:53:48.634Z,17.50
2019-05-20T09:56:16.395Z,17.50
2019-05-20T09:58:49.232Z,17.60
2019-05-20T10:01:17.094Z,17.60
2019-05-20T10:03:45.644Z,17.50
2019-05-20T10:06:21.143Z,17.40
2019-05-20T10:08:53.698Z,17.30
2019-05-20T10:11:21.373Z,17.30
2019-05-20T10:13:49.373Z,17.30
2019-05-20T10:16:17.557Z,17.40
2019-05-20T10:18:55.019Z,17.40
2019-05-20T10:21:20.864Z,17.40
2019-05-20T10:23:56.010Z,17.50
2019-05-20T10:26:23.896Z,17.50
2019-05-20T10:28:52.111Z,17.50
2019-05-20T10:34:47.220Z,17.50
2019-05-20T10:37:14.967Z,17.50
2019-05-20T10:39:43.168Z,17.50
2019-05-20T10:42:12.094Z,17.50
2019-05-20T10:44:42.003Z,17.50
2019-05-20T10:47:10.380Z,17.50
2019-05-20T10:49:38.103Z,17.50
2019-05-20T10:52:06.027Z,17.50
2019-05-20T10:54:34.122Z,17.50
2019-05-20T10:57:01.875Z,17.40
2019-05-20T10:59:29.746Z,17.40
2019-05-20T11:01:57.812Z,17.30
2019-05-20T11:04:26.087Z,17.30
2019-05-20T11:06:54.322Z,17.30
2019-05-20T11:09:22.155Z,17.30
2019-05-20T11:11:49.858Z,17.30
2019-05-20T11:14:17.709Z,17.30
2019-05-20T11:16:45.550Z,17.20
2019-05-20T11:19:13.266Z,17.30
2019-05-20T11:21:42.479Z,17.20
2019-05-20T11:24:10.257Z,17.20
2019-05-20T11:26:38.980Z,17.00
2019-05-20T11:29:06.713Z,16.90
2019-05-20T11:31:34.994Z,16.90
2019-05-20T11:34:02.767Z,16.80
2019-05-20T11:36:30.632Z,16.70
2019-05-20T11:38:58.376Z,16.60
2019-05-20T11:41:52.194Z,16.60
2019-05-20T11:43:55.773Z,16.50
2019-05-20T11:46:23.979Z,16.40
2019-05-20T11:48:51.724Z,16.40
2019-05-20T11:51:19.499Z,16.30
2019-05-20T11:53:47.209Z,16.20
2019-05-20T11:56:14.977Z,16.10
2019-05-20T11:58:42.712Z,16.10
2019-05-20T12:01:10.445Z,16.00
2019-05-20T12:03:38.296Z,16.00
2019-05-20T12:06:06.330Z,15.90
2019-05-20T12:08:34.557Z,15.90
2019-05-20T12:11:02.297Z,15.90
2019-05-20T12:13:30.017Z,15.90
2019-05-20T12:15:57.744Z,15.90
2019-05-20T12:18:26.324Z,15.90
2019-05-20T12:20:55.996Z,15.90
2019-05-20T12:23:24.655Z,15.90
2019-05-20T12:25:53.084Z,16.00
2019-05-20T12:28:24.557Z,16.00
2019-05-20T12:30:53.283Z,16.00
2019-05-20T12:33:21.286Z,16.10
2019-05-20T12:35:49.652Z,16.10
2019-05-20T12:38:18.058Z,16.10
2019-05-20T12:40:46.642Z,16.10
2019-05-20T12:43:15.043Z,16.10
2019-05-20T12:45:43.617Z,16.10
2019-05-20T12:48:12.163Z,16.10
2019-05-20T12:50:39.996Z,16.00
2019-05-20T12:53:07.794Z,16.00
2019-05-20T12:55:37.191Z,16.00
2019-05-20T12:58:05.017Z,15.90
2019-05-20T13:00:32.960Z,15.90
2019-05-20T13:03:00.781Z,15.90
2019-05-20T13:05:28.507Z,15.80
2019-05-20T13:07:56.551Z,15.90
2019-05-20T13:10:30.215Z,15.90
2019-05-20T13:12:54.492Z,16.00
2019-05-20T13:15:22.498Z,16.00
2019-05-20T13:17:50.400Z,16.10
2019-05-20T13:20:18.326Z,16.20
2019-05-20T13:22:46.255Z,16.20
2019-05-20T13:25:14.185Z,16.30
2019-05-20T13:27:41.947Z,16.30
2019-05-20T13:30:10.245Z,16.40
2019-05-20T13:32:38.526Z,16.30
2019-05-20T13:35:06.898Z,16.30
2019-05-20T13:37:34.850Z,16.30
2019-05-20T13:40:21.907Z,16.30
2019-05-20T13:42:52.576Z,16.30
2019-05-20T13:45:20.495Z,16.30
2019-05-20T13:47:49.582Z,16.40
2019-05-20T13:50:21.844Z,16.40
2019-05-20T13:52:58.687Z,16.30
2019-05-20T13:55:28.274Z,16.30
2019-05-20T13:57:58.438Z,16.30
2019-05-20T14:00:28.197Z,16.20
2019-05-20T14:02:56.908Z,16.20
2019-05-20T14:05:29.219Z,16.10
2019-05-20T14:08:01.353Z,16.10
2019-05-20T14:10:30.708Z,16.00
2019-05-20T14:13:00.872Z,15.90
2019-05-20T14:15:30.399Z,15.90
2019-05-20T14:18:00.368Z,15.80
2019-05-20T14:20:28.222Z,15.70
2019-05-20T14:22:56.044Z,15.70
2019-05-20T14:25:29.211Z,15.60
2019-05-20T14:28:02.461Z,15.50
2019-05-20T14:30:30.313Z,15.50
2019-05-20T14:32:59.545Z,15.50
2019-05-20T14:35:28.281Z,15.50
2019-05-20T14:37:56.736Z,15.50
2019-05-20T14:40:24.729Z,15.40
2019-05-20T14:42:53.646Z,15.30
2019-05-20T14:45:21.358Z,15.30
2019-05-20T14:47:51.604Z,15.30
2019-05-20T14:50:20.044Z,15.30
2019-05-20T14:52:47.985Z,15.40
2019-05-20T14:55:15.817Z,15.40
2019-05-20T14:57:44.177Z,15.40
2019-05-20T15:00:12.823Z,15.50
2019-05-20T15:02:41.289Z,15.50
2019-05-20T15:05:14.063Z,15.70
2019-05-20T15:07:42.011Z,15.90
2019-05-20T15:10:10.141Z,16.00
2019-05-20T15:12:38.158Z,16.10
2019-05-20T15:15:06.390Z,16.10
2019-05-20T15:17:34.317Z,16.10
2019-05-20T15:20:02.299Z,16.10
2019-05-20T15:22:30.211Z,16.10
2019-05-20T15:24:58.102Z,16.00
2019-05-20T15:27:26.031Z,16.00
2019-05-20T15:29:54.768Z,15.90
2019-05-20T15:32:23.228Z,15.80
2019-05-20T15:34:51.053Z,15.80
2019-05-20T15:37:18.771Z,15.70
2019-05-20T15:39:46.528Z,15.60
2019-05-20T15:42:14.518Z,15.60
2019-05-20T15:44:42.329Z,15.60
2019-05-20T15:47:10.161Z,15.60
2019-05-20T15:49:38.129Z,15.60
2019-05-20T15:52:06.027Z,15.60
2019-05-20T15:54:34.344Z,15.60
2019-05-20T15:57:02.333Z,15.70
2019-05-20T15:59:44.741Z,15.70
2019-05-20T16:01:59.983Z,15.80
2019-05-20T16:04:27.862Z,15.90
2019-05-20T16:06:59.748Z,15.90
2019-05-20T16:09:26.012Z,15.90
2019-05-20T16:11:53.785Z,15.90
2019-05-20T16:14:21.656Z,15.90
2019-05-20T16:16:49.617Z,15.90
2019-05-20T16:19:18.795Z,15.90
2019-05-20T16:21:47.913Z,15.80
2019-05-20T16:24:15.931Z,15.80
2019-05-20T16:26:43.803Z,15.80
2019-05-20T16:29:12.952Z,15.80
2019-05-20T16:31:40.835Z,15.70
2019-05-20T16:34:09.941Z,15.70
2019-05-20T16:36:38.176Z,15.70
2019-05-20T16:39:10.100Z,15.60
2019-05-20T16:44:26.548Z,15.60
2019-05-20T16:46:54.842Z,15.60
2019-05-20T16:49:23.204Z,15.60
2019-05-20T16:51:52.917Z,15.60
2019-05-20T16:54:26.162Z,15.50
2019-05-20T16:56:55.552Z,15.40
2019-05-20T16:59:28.434Z,15.30
2019-05-20T17:01:56.460Z,15.20
2019-05-20T17:04:30.220Z,15.10
2019-05-20T17:06:57.911Z,15.00
2019-05-20T17:09:26.255Z,14.80
2019-05-20T17:11:54.042Z,14.70
2019-05-20T17:14:28.245Z,14.60
2019-05-20T17:16:56.156Z,14.50
2019-05-20T17:19:24.551Z,14.50
2019-05-20T17:21:52.240Z,14.40
2019-05-20T17:24:20.101Z,14.40
2019-05-20T17:26:47.878Z,14.40
2019-05-20T17:29:15.720Z,14.40
2019-05-20T17:31:43.832Z,14.40
2019-05-20T17:34:11.790Z,14.30
2019-05-20T17:36:40.535Z,14.30
2019-05-20T17:39:08.379Z,14.30
2019-05-20T17:41:36.231Z,14.20
2019-05-20T17:44:04.895Z,14.20
2019-05-20T17:46:33.187Z,14.10
2019-05-20T17:49:01.658Z,14.00
2019-05-20T17:51:29.581Z,14.00
2019-05-20T17:53:57.540Z,13.90
2019-05-20T17:56:25.371Z,13.90
2019-05-20T17:58:53.822Z,13.80
2019-05-20T18:01:23.536Z,13.80
2019-05-20T18:03:51.550Z,13.70
2019-05-20T18:06:19.555Z,13.70
2019-05-20T18:08:56.108Z,13.60
2019-05-20T18:11:25.531Z,13.60
2019-05-20T18:13:55.538Z,13.60
2019-05-20T18:16:24.801Z,13.60
2019-05-20T18:18:53.509Z,13.60
2019-05-20T18:21:21.357Z,13.60
2019-05-20T18:23:50.250Z,13.60
2019-05-20T18:26:18.049Z,13.70
2019-05-20T18:28:47.310Z,13.60
2019-05-20T18:31:31.376Z,13.60
2019-05-20T18:33:47.306Z,13.60
2019-05-20T18:36:17.042Z,13.50
2019-05-20T18:38:49.347Z,13.50
2019-05-20T18:41:17.638Z,13.50
2019-05-20T18:43:47.499Z,13.40
2019-05-20T18:46:19.366Z,13.40
2019-05-20T18:48:48.017Z,13.40
2019-05-20T18:51:18.070Z,13.40
2019-05-20T18:53:47.135Z,13.40
2019-05-20T18:56:21.859Z,13.30
2019-05-20T18:58:50.296Z,13.30
2019-05-20T19:01:21.744Z,13.30
2019-05-20T19:03:52.375Z,13.30
2019-05-20T19:06:24.159Z,13.20
2019-05-20T19:08:54.359Z,13.10
2019-05-20T19:11:23.100Z,13.10
2019-05-20T19:13:54.224Z,13.10
2019-05-20T19:16:26.306Z,13.10
2019-05-20T19:18:54.520Z,13.10
2019-05-20T19:21:22.539Z,13.10
2019-05-20T19:23:50.559Z,13.10
2019-05-20T19:26:24.814Z,13.10
2019-05-20T19:28:49.919Z,13.00
2019-05-20T19:31:24.220Z,12.90
2019-05-20T19:33:55.662Z,12.90
2019-05-20T19:36:23.939Z,12.80
2019-05-20T19:38:59.264Z,12.80
2019-05-20T19:41:34.144Z,12.80
2019-05-20T19:44:02.634Z,12.80
2019-05-20T19:46:30.980Z,12.70
2019-05-20T19:49:02.873Z,12.60
2019-05-20T19:51:32.325Z,12.50
2019-05-20T19:54:01.238Z,12.50
2019-05-20T19:56:31.282Z,12.40
2019-05-20T19:59:03.206Z,12.30
2019-05-20T20:01:32.008Z,12.20
2019-05-20T20:04:02.400Z,12.20
2019-05-20T20:06:36.343Z,12.10
2019-05-20T20:09:10.862Z,12.10
2019-05-20T20:11:44.365Z,12.10
2019-05-20T20:14:17.686Z,12.00
2019-05-20T20:16:44.422Z,11.90
2019-05-20T20:19:13.880Z,11.80
2019-05-20T20:21:42.099Z,11.70
2019-05-20T20:24:09.863Z,11.70
2019-05-20T20:26:38.313Z,11.60
2019-05-20T20:29:06.168Z,11.60
2019-05-20T20:31:34.030Z,11.50
2019-05-20T20:34:01.902Z,11.50
2019-05-20T20:36:29.660Z,11.50
2019-05-20T20:38:58.246Z,11.60
2019-05-20T20:41:26.162Z,11.60
2019-05-20T20:43:54.090Z,11.60
2019-05-20T20:46:21.934Z,11.60
2019-05-20T20:48:49.680Z,11.50
2019-05-20T20:51:17.482Z,11.50
2019-05-20T20:53:46.083Z,11.50
2019-05-20T20:56:24.795Z,11.40
2019-05-20T20:58:43.398Z,11.40
2019-05-20T21:01:11.250Z,11.40
2019-05-20T21:03:40.170Z,11.30
2019-05-20T21:06:08.798Z,11.20
2019-05-20T21:08:37.324Z,11.20
2019-05-20T21:11:05.938Z,11.20
2019-05-20T21:13:34.818Z,11.20
2019-05-20T21:16:03.279Z,11.10
2019-05-20T21:18:31.909Z,11.10
2019-05-20T21:21:00.422Z,11.10
2019-05-20T21:23:29.087Z,11.10
2019-05-20T21:25:58.117Z,11.10
2019-05-20T21:28:26.803Z,11.10
2019-05-20T21:30:55.374Z,11.10
2019-05-20T21:33:23.901Z,11.10
2019-05-20T21:35:52.454Z,11.10
2019-05-20T21:38:21.145Z,11.00
2019-05-20T21:40:49.861Z,11.00
2019-05-20T21:43:18.870Z,11.00
2019-05-20T21:45:47.539Z,10.90
2019-05-20T21:48:16.110Z,10.90
2019-05-20T21:50:44.686Z,10.80
2019-05-20T21:53:13.176Z,10.80
2019-05-20T21:55:41.668Z,10.70
2019-05-20T21:58:10.867Z,10.60
2019-05-20T22:00:49.733Z,10.50
2019-05-20T22:03:24.587Z,10.50
2019-05-20T22:05:46.845Z,10.40
2019-05-20T22:08:15.431Z,10.40
2019-05-20T22:10:43.261Z,10.30
2019-05-20T22:13:11.890Z,10.20
2019-05-20T22:15:40.375Z,10.10
2019-05-20T22:18:09.023Z,10.00
2019-05-20T22:20:37.583Z,10.00
2019-05-20T22:23:16.650Z,9.90
2019-05-20T22:25:49.934Z,9.90
2019-05-20T22:28:18.538Z,9.90
2019-05-20T22:30:47.275Z,9.90
2019-05-20T22:33:15.959Z,9.90
2019-05-20T22:35:43.872Z,9.90
2019-05-20T22:38:11.715Z,9.90
2019-05-20T22:40:39.585Z,10.00
2019-05-20T22:43:07.423Z,10.00
2019-05-20T22:45:35.902Z,10.10
2019-05-20T22:48:04.445Z,10.20
2019-05-20T22:50:32.197Z,10.30
2019-05-20T22:53:00.138Z,10.30
2019-05-20T22:55:27.943Z,10.40
2019-05-20T22:57:56.542Z,10.50
2019-05-20T23:00:25.147Z,10.50
2019-05-20T23:02:53.757Z,10.50
2019-05-20T23:05:22.805Z,10.50
2019-05-20T23:07:51.314Z,10.50
2019-05-20T23:10:19.888Z,10.50
2019-05-20T23:12:48.612Z,10.60
2019-05-20T23:15:17.434Z,10.60
2019-05-20T23:17:46.097Z,10.60
2019-05-20T23:20:15.189Z,10.50
2019-05-20T23:22:43.816Z,10.50
2019-05-20T23:25:12.937Z,10.40
2019-05-20T23:27:41.730Z,10.40
2019-05-20T23:30:10.495Z,10.30
2019-05-20T23:32:38.973Z,10.30
2019-05-20T23:35:08.004Z,10.20
2019-05-20T23:37:37.011Z,10.10
2019-05-20T23:40:06.770Z,10.00
2019-05-20T23:42:35.534Z,10.00
2019-05-20T23:45:07.236Z,10.00
2019-05-20T23:47:37.306Z,10.10
2019-05-20T23:50:06.252Z,10.10
2019-05-20T23:52:35.142Z,10.10
2019-05-20T23:55:05.211Z,10.10
2019-05-20T23:57:33.842Z,10.10
